sensor_id;sensor_type;location;lat;lon;timestamp;P1;durP1;ratioP1;P2;durP2;ratioP2
10166;SDS011;62970;53.130;8.244;2022-11-20T00:04:08;10.77;;;9.67;;
10166;SDS011;62970;53.130;8.244;2022-11-20T00:06:39;12.73;;;10.40;;
10166;SDS011;62970;53.130;8.244;2022-11-20T00:09:08;12.20;;;10.17;;
10166;SDS011;62970;53.130;8.244;2022-11-20T00:11:40;11.50;;;10.30;;
10166;SDS011;62970;53.130;8.244;2022-11-20T00:14:10;10.77;;;9.67;;
10166;SDS011;62970;53.130;8.244;2022-11-20T00:21:45;11.30;;;9.70;;
10166;SDS011;62970;53.130;8.244;2022-11-20T00:24:16;11.47;;;9.60;;
10166;SDS011;62970;53.130;8.244;2022-11-20T00:26:45;10.53;;;9.43;;
10166;SDS011;62970;53.130;8.244;2022-11-20T00:29:15;11.10;;;9.37;;
10166;SDS011;62970;53.130;8.244;2022-11-20T00:31:45;11.80;;;9.53;;
10166;SDS011;62970;53.130;8.244;2022-11-20T00:34:15;10.60;;;9.50;;
10166;SDS011;62970;53.130;8.244;2022-11-20T00:36:47;10.77;;;9.40;;
10166;SDS011;62970;53.130;8.244;2022-11-20T00:39:16;9.80;;;8.60;;
10166;SDS011;62970;53.130;8.244;2022-11-20T00:41:46;10.03;;;9.03;;
10166;SDS011;62970;53.130;8.244;2022-11-20T00:44:18;10.83;;;8.73;;
10166;SDS011;62970;53.130;8.244;2022-11-20T00:46:47;10.67;;;8.97;;
10166;SDS011;62970;53.130;8.244;2022-11-20T01:15:02;10.50;;;8.33;;
10166;SDS011;62970;53.130;8.244;2022-11-20T01:17:33;9.27;;;8.33;;
10166;SDS011;62970;53.130;8.244;2022-11-20T01:20:03;11.93;;;9.43;;
10166;SDS011;62970;53.130;8.244;2022-11-20T01:43:16;8.93;;;8.03;;
10166;SDS011;62970;53.130;8.244;2022-11-20T01:46:00;9.50;;;7.93;;
10166;SDS011;62970;53.130;8.244;2022-11-20T01:48:43;10.33;;;8.70;;
10166;SDS011;62970;53.130;8.244;2022-11-20T01:51:23;8.40;;;7.27;;
10166;SDS011;62970;53.130;8.244;2022-11-20T01:56:31;8.87;;;7.97;;
10166;SDS011;62970;53.130;8.244;2022-11-20T01:59:08;8.93;;;8.03;;
10166;SDS011;62970;53.130;8.244;2022-11-20T02:01:41;9.57;;;8.57;;
10166;SDS011;62970;53.130;8.244;2022-11-20T02:04:12;8.63;;;7.83;;
10166;SDS011;62970;53.130;8.244;2022-11-20T02:06:44;8.70;;;7.80;;
10166;SDS011;62970;53.130;8.244;2022-11-20T02:09:18;9.03;;;7.73;;
10166;SDS011;62970;53.130;8.244;2022-11-20T02:19:34;9.43;;;8.43;;
10166;SDS011;62970;53.130;8.244;2022-11-20T02:22:05;9.60;;;8.50;;
10166;SDS011;62970;53.130;8.244;2022-11-20T02:29:54;9.93;;;7.60;;
10166;SDS011;62970;53.130;8.244;2022-11-20T02:32:30;8.77;;;7.87;;
10166;SDS011;62970;53.130;8.244;2022-11-20T02:35:06;8.43;;;7.53;;
10166;SDS011;62970;53.130;8.244;2022-11-20T02:37:39;10.63;;;8.37;;
10166;SDS011;62970;53.130;8.244;2022-11-20T02:40:09;8.67;;;7.80;;
10166;SDS011;62970;53.130;8.244;2022-11-20T02:42:42;9.40;;;8.40;;
10166;SDS011;62970;53.130;8.244;2022-11-20T02:45:14;8.80;;;7.53;;
10166;SDS011;62970;53.130;8.244;2022-11-20T02:47:44;10.47;;;8.47;;
10166;SDS011;62970;53.130;8.244;2022-11-20T02:50:13;8.83;;;7.77;;
10166;SDS011;62970;53.130;8.244;2022-11-20T02:52:43;9.20;;;8.17;;
10166;SDS011;62970;53.130;8.244;2022-11-20T02:55:13;8.77;;;7.87;;
10166;SDS011;62970;53.130;8.244;2022-11-20T02:57:44;8.83;;;7.97;;
10166;SDS011;62970;53.130;8.244;2022-11-20T03:00:18;8.83;;;7.70;;
10166;SDS011;62970;53.130;8.244;2022-11-20T03:02:47;9.23;;;8.00;;
10166;SDS011;62970;53.130;8.244;2022-11-20T03:05:16;8.17;;;7.37;;
10166;SDS011;62970;53.130;8.244;2022-11-20T03:07:47;9.33;;;8.33;;
10166;SDS011;62970;53.130;8.244;2022-11-20T03:10:16;8.53;;;7.63;;
10166;SDS011;62970;53.130;8.244;2022-11-20T03:12:46;8.77;;;7.80;;
10166;SDS011;62970;53.130;8.244;2022-11-20T03:15:18;8.70;;;7.80;;
10166;SDS011;62970;53.130;8.244;2022-11-20T03:17:48;8.40;;;7.50;;
10166;SDS011;62970;53.130;8.244;2022-11-20T03:20:17;11.33;;;8.10;;
10166;SDS011;62970;53.130;8.244;2022-11-20T03:22:47;9.17;;;8.13;;
10166;SDS011;62970;53.130;8.244;2022-11-20T03:25:17;8.20;;;7.30;;
10166;SDS011;62970;53.130;8.244;2022-11-20T03:27:46;7.97;;;7.17;;
10166;SDS011;62970;53.130;8.244;2022-11-20T03:30:18;10.00;;;7.43;;
10166;SDS011;62970;53.130;8.244;2022-11-20T03:32:48;7.87;;;7.07;;
10166;SDS011;62970;53.130;8.244;2022-11-20T03:35:20;10.00;;;7.80;;
10166;SDS011;62970;53.130;8.244;2022-11-20T03:37:51;8.63;;;7.13;;
10166;SDS011;62970;53.130;8.244;2022-11-20T03:40:20;8.10;;;7.30;;
10166;SDS011;62970;53.130;8.244;2022-11-20T03:42:50;9.20;;;7.47;;
10166;SDS011;62970;53.130;8.244;2022-11-20T03:45:24;7.97;;;7.00;;
10166;SDS011;62970;53.130;8.244;2022-11-20T03:47:54;9.07;;;7.67;;
10166;SDS011;62970;53.130;8.244;2022-11-20T03:50:23;8.67;;;6.97;;
10166;SDS011;62970;53.130;8.244;2022-11-20T03:52:53;9.20;;;7.93;;
10166;SDS011;62970;53.130;8.244;2022-11-20T03:55:22;7.93;;;6.97;;
10166;SDS011;62970;53.130;8.244;2022-11-20T03:57:51;8.20;;;7.40;;
10166;SDS011;62970;53.130;8.244;2022-11-20T04:00:24;7.73;;;7.03;;
10166;SDS011;62970;53.130;8.244;2022-11-20T04:02:53;8.27;;;7.27;;
10166;SDS011;62970;53.130;8.244;2022-11-20T04:05:26;8.07;;;7.27;;
10166;SDS011;62970;53.130;8.244;2022-11-20T04:07:56;7.83;;;6.97;;
10166;SDS011;62970;53.130;8.244;2022-11-20T04:10:26;8.30;;;7.17;;
10166;SDS011;62970;53.130;8.244;2022-11-20T04:12:56;8.27;;;7.47;;
10166;SDS011;62970;53.130;8.244;2022-11-20T04:15:29;8.50;;;7.60;;
10166;SDS011;62970;53.130;8.244;2022-11-20T04:17:58;8.30;;;7.27;;
10166;SDS011;62970;53.130;8.244;2022-11-20T04:20:28;8.97;;;7.73;;
10166;SDS011;62970;53.130;8.244;2022-11-20T04:22:58;8.07;;;7.27;;
10166;SDS011;62970;53.130;8.244;2022-11-20T04:25:27;7.90;;;6.97;;
10166;SDS011;62970;53.130;8.244;2022-11-20T04:27:58;8.90;;;7.43;;
10166;SDS011;62970;53.130;8.244;2022-11-20T04:30:30;9.07;;;7.03;;
10166;SDS011;62970;53.130;8.244;2022-11-20T04:33:00;8.27;;;7.20;;
10166;SDS011;62970;53.130;8.244;2022-11-20T04:35:29;8.00;;;6.90;;
10166;SDS011;62970;53.130;8.244;2022-11-20T04:38:01;8.23;;;6.77;;
10166;SDS011;62970;53.130;8.244;2022-11-20T04:40:32;7.63;;;6.77;;
10166;SDS011;62970;53.130;8.244;2022-11-20T04:43:04;7.37;;;6.53;;
10166;SDS011;62970;53.130;8.244;2022-11-20T04:45:36;6.83;;;6.13;;
10166;SDS011;62970;53.130;8.244;2022-11-20T04:48:06;9.73;;;6.63;;
10166;SDS011;62970;53.130;8.244;2022-11-20T04:50:39;7.30;;;6.43;;
10166;SDS011;62970;53.130;8.244;2022-11-20T04:53:08;7.57;;;6.40;;
10166;SDS011;62970;53.130;8.244;2022-11-20T04:55:38;7.67;;;6.33;;
10166;SDS011;62970;53.130;8.244;2022-11-20T04:58:08;6.77;;;6.17;;
10166;SDS011;62970;53.130;8.244;2022-11-20T05:00:42;7.67;;;6.37;;
10166;SDS011;62970;53.130;8.244;2022-11-20T05:03:12;6.53;;;5.83;;
10166;SDS011;62970;53.130;8.244;2022-11-20T05:05:41;7.03;;;6.33;;
10166;SDS011;62970;53.130;8.244;2022-11-20T05:08:11;7.73;;;6.07;;
10166;SDS011;62970;53.130;8.244;2022-11-20T05:10:40;7.07;;;6.37;;
10166;SDS011;62970;53.130;8.244;2022-11-20T05:13:09;7.23;;;6.33;;
10166;SDS011;62970;53.130;8.244;2022-11-20T05:15:41;6.83;;;6.23;;
10166;SDS011;62970;53.130;8.244;2022-11-20T05:18:10;7.43;;;6.23;;
10166;SDS011;62970;53.130;8.244;2022-11-20T05:20:40;7.33;;;6.60;;
10166;SDS011;62970;53.130;8.244;2022-11-20T05:23:09;7.20;;;6.50;;
10166;SDS011;62970;53.130;8.244;2022-11-20T05:25:39;7.23;;;6.50;;
10166;SDS011;62970;53.130;8.244;2022-11-20T05:28:08;6.50;;;5.90;;
10166;SDS011;62970;53.130;8.244;2022-11-20T05:30:37;7.07;;;6.37;;
10166;SDS011;62970;53.130;8.244;2022-11-20T05:33:09;7.00;;;6.27;;
10166;SDS011;62970;53.130;8.244;2022-11-20T05:35:39;6.97;;;6.27;;
10166;SDS011;62970;53.130;8.244;2022-11-20T05:38:08;7.10;;;6.27;;
10166;SDS011;62970;53.130;8.244;2022-11-20T05:40:38;7.63;;;6.83;;
10166;SDS011;62970;53.130;8.244;2022-11-20T05:43:07;7.03;;;6.33;;
10166;SDS011;62970;53.130;8.244;2022-11-20T05:45:36;7.33;;;6.33;;
10166;SDS011;62970;53.130;8.244;2022-11-20T05:48:09;8.63;;;6.40;;
10166;SDS011;62970;53.130;8.244;2022-11-20T05:50:38;7.40;;;6.60;;
10166;SDS011;62970;53.130;8.244;2022-11-20T05:53:08;7.83;;;6.87;;
10166;SDS011;62970;53.130;8.244;2022-11-20T05:55:37;7.70;;;6.93;;
10166;SDS011;62970;53.130;8.244;2022-11-20T05:58:06;7.33;;;6.63;;
10166;SDS011;62970;53.130;8.244;2022-11-20T06:00:35;7.90;;;6.57;;
10166;SDS011;62970;53.130;8.244;2022-11-20T06:03:05;7.90;;;6.73;;
10166;SDS011;62970;53.130;8.244;2022-11-20T06:05:37;7.10;;;6.40;;
10166;SDS011;62970;53.130;8.244;2022-11-20T06:08:06;7.57;;;6.60;;
10166;SDS011;62970;53.130;8.244;2022-11-20T06:10:35;7.50;;;6.70;;
10166;SDS011;62970;53.130;8.244;2022-11-20T06:13:05;8.07;;;6.83;;
10166;SDS011;62970;53.130;8.244;2022-11-20T06:15:35;9.10;;;7.20;;
10166;SDS011;62970;53.130;8.244;2022-11-20T06:18:05;8.50;;;6.93;;
10166;SDS011;62970;53.130;8.244;2022-11-20T06:20:37;8.03;;;7.00;;
10166;SDS011;62970;53.130;8.244;2022-11-20T06:23:06;8.23;;;6.77;;
10166;SDS011;62970;53.130;8.244;2022-11-20T06:25:37;8.83;;;7.60;;
10166;SDS011;62970;53.130;8.244;2022-11-20T06:28:07;9.00;;;7.50;;
10166;SDS011;62970;53.130;8.244;2022-11-20T06:30:36;8.70;;;7.80;;
10166;SDS011;62970;53.130;8.244;2022-11-20T06:33:13;8.53;;;7.70;;
10166;SDS011;62970;53.130;8.244;2022-11-20T06:35:44;8.60;;;7.70;;
10166;SDS011;62970;53.130;8.244;2022-11-20T06:38:14;8.57;;;7.67;;
10166;SDS011;62970;53.130;8.244;2022-11-20T06:40:43;9.47;;;8.17;;
10166;SDS011;62970;53.130;8.244;2022-11-20T06:43:12;9.20;;;8.20;;
10166;SDS011;62970;53.130;8.244;2022-11-20T06:45:42;9.23;;;7.77;;
10166;SDS011;62970;53.130;8.244;2022-11-20T06:48:11;9.77;;;8.50;;
10166;SDS011;62970;53.130;8.244;2022-11-20T06:50:40;9.00;;;8.13;;
10166;SDS011;62970;53.130;8.244;2022-11-20T06:53:13;9.77;;;8.77;;
10166;SDS011;62970;53.130;8.244;2022-11-20T06:55:43;8.70;;;7.80;;
10166;SDS011;62970;53.130;8.244;2022-11-20T06:58:14;9.00;;;8.07;;
10166;SDS011;62970;53.130;8.244;2022-11-20T07:00:46;9.07;;;8.17;;
10166;SDS011;62970;53.130;8.244;2022-11-20T07:03:15;9.53;;;8.53;;
10166;SDS011;62970;53.130;8.244;2022-11-20T07:05:44;8.97;;;7.70;;
10166;SDS011;62970;53.130;8.244;2022-11-20T07:08:16;9.60;;;8.40;;
10166;SDS011;62970;53.130;8.244;2022-11-20T07:10:45;10.73;;;9.10;;
10166;SDS011;62970;53.130;8.244;2022-11-20T07:13:15;9.53;;;8.53;;
10166;SDS011;62970;53.130;8.244;2022-11-20T07:15:44;11.07;;;9.07;;
10166;SDS011;62970;53.130;8.244;2022-11-20T07:18:13;10.97;;;9.40;;
10166;SDS011;62970;53.130;8.244;2022-11-20T07:20:43;11.43;;;8.90;;
10166;SDS011;62970;53.130;8.244;2022-11-20T07:23:12;9.87;;;8.87;;
10166;SDS011;62970;53.130;8.244;2022-11-20T07:25:45;13.33;;;9.63;;
10166;SDS011;62970;53.130;8.244;2022-11-20T07:28:15;10.37;;;9.13;;
10166;SDS011;62970;53.130;8.244;2022-11-20T07:30:48;9.67;;;8.67;;
10166;SDS011;62970;53.130;8.244;2022-11-20T07:33:19;10.93;;;9.23;;
10166;SDS011;62970;53.130;8.244;2022-11-20T07:35:48;9.83;;;8.83;;
10166;SDS011;62970;53.130;8.244;2022-11-20T07:38:20;9.67;;;8.67;;
10166;SDS011;62970;53.130;8.244;2022-11-20T07:40:53;9.80;;;8.80;;
10166;SDS011;62970;53.130;8.244;2022-11-20T07:43:26;10.43;;;8.50;;
10166;SDS011;62970;53.130;8.244;2022-11-20T07:45:56;10.27;;;9.17;;
10166;SDS011;62970;53.130;8.244;2022-11-20T07:48:26;10.40;;;9.40;;
10166;SDS011;62970;53.130;8.244;2022-11-20T07:50:55;11.37;;;9.27;;
10166;SDS011;62970;53.130;8.244;2022-11-20T07:53:27;10.17;;;9.10;;
10166;SDS011;62970;53.130;8.244;2022-11-20T07:55:59;10.53;;;9.17;;
10166;SDS011;62970;53.130;8.244;2022-11-20T07:58:28;10.83;;;9.57;;
10166;SDS011;62970;53.130;8.244;2022-11-20T08:01:02;10.47;;;9.33;;
10166;SDS011;62970;53.130;8.244;2022-11-20T08:03:33;10.43;;;9.10;;
10166;SDS011;62970;53.130;8.244;2022-11-20T08:06:06;10.60;;;9.50;;
10166;SDS011;62970;53.130;8.244;2022-11-20T08:08:39;11.03;;;9.20;;
10166;SDS011;62970;53.130;8.244;2022-11-20T08:11:08;10.37;;;9.27;;
10166;SDS011;62970;53.130;8.244;2022-11-20T08:13:50;10.40;;;9.30;;
10166;SDS011;62970;53.130;8.244;2022-11-20T08:16:31;10.40;;;9.30;;
10166;SDS011;62970;53.130;8.244;2022-11-20T08:19:01;11.33;;;9.50;;
10166;SDS011;62970;53.130;8.244;2022-11-20T08:21:30;12.80;;;9.57;;
10166;SDS011;62970;53.130;8.244;2022-11-20T08:24:02;10.50;;;9.40;;
10166;SDS011;62970;53.130;8.244;2022-11-20T08:26:34;10.40;;;9.30;;
10166;SDS011;62970;53.130;8.244;2022-11-20T08:29:05;11.47;;;9.33;;
10166;SDS011;62970;53.130;8.244;2022-11-20T08:31:35;11.23;;;10.07;;
10166;SDS011;62970;53.130;8.244;2022-11-20T08:34:05;10.97;;;9.33;;
10166;SDS011;62970;53.130;8.244;2022-11-20T08:36:34;10.07;;;9.07;;
10166;SDS011;62970;53.130;8.244;2022-11-20T08:39:06;10.53;;;9.43;;
10166;SDS011;62970;53.130;8.244;2022-11-20T08:41:35;10.43;;;9.23;;
10166;SDS011;62970;53.130;8.244;2022-11-20T08:44:06;10.50;;;9.40;;
10166;SDS011;62970;53.130;8.244;2022-11-20T08:46:37;10.93;;;9.73;;
10166;SDS011;62970;53.130;8.244;2022-11-20T08:49:11;11.27;;;9.97;;
10166;SDS011;62970;53.130;8.244;2022-11-20T08:51:41;11.37;;;9.60;;
10166;SDS011;62970;53.130;8.244;2022-11-20T08:54:16;10.67;;;9.43;;
10166;SDS011;62970;53.130;8.244;2022-11-20T08:56:47;10.43;;;9.33;;
10166;SDS011;62970;53.130;8.244;2022-11-20T08:59:16;10.20;;;9.10;;
10166;SDS011;62970;53.130;8.244;2022-11-20T09:01:46;10.07;;;9.07;;
10166;SDS011;62970;53.130;8.244;2022-11-20T09:04:15;10.87;;;9.77;;
10166;SDS011;62970;53.130;8.244;2022-11-20T09:06:45;10.47;;;9.23;;
10166;SDS011;62970;53.130;8.244;2022-11-20T09:09:18;10.83;;;9.73;;
10166;SDS011;62970;53.130;8.244;2022-11-20T09:11:48;10.93;;;9.83;;
10166;SDS011;62970;53.130;8.244;2022-11-20T09:14:18;10.37;;;9.30;;
10166;SDS011;62970;53.130;8.244;2022-11-20T09:16:49;9.83;;;8.83;;
10166;SDS011;62970;53.130;8.244;2022-11-20T09:19:19;9.53;;;8.53;;
10166;SDS011;62970;53.130;8.244;2022-11-20T09:21:48;10.87;;;9.60;;
10166;SDS011;62970;53.130;8.244;2022-11-20T09:24:20;10.00;;;8.83;;
10166;SDS011;62970;53.130;8.244;2022-11-20T09:26:50;10.43;;;9.33;;
10166;SDS011;62970;53.130;8.244;2022-11-20T09:29:19;10.53;;;9.33;;
10166;SDS011;62970;53.130;8.244;2022-11-20T09:31:48;10.27;;;9.17;;
10166;SDS011;62970;53.130;8.244;2022-11-20T09:34:17;9.97;;;8.97;;
10166;SDS011;62970;53.130;8.244;2022-11-20T09:36:47;10.67;;;9.67;;
10166;SDS011;62970;53.130;8.244;2022-11-20T09:39:16;10.03;;;9.03;;
10166;SDS011;62970;53.130;8.244;2022-11-20T09:41:52;10.40;;;9.37;;
10166;SDS011;62970;53.130;8.244;2022-11-20T09:44:49;9.70;;;8.70;;
10166;SDS011;62970;53.130;8.244;2022-11-20T09:47:36;9.37;;;8.47;;
10166;SDS011;62970;53.130;8.244;2022-11-20T09:50:26;9.93;;;8.73;;
10166;SDS011;62970;53.130;8.244;2022-11-20T09:56:03;9.60;;;8.60;;
10166;SDS011;62970;53.130;8.244;2022-11-20T09:58:38;9.23;;;8.33;;
10166;SDS011;62970;53.130;8.244;2022-11-20T10:01:12;8.97;;;8.07;;
10166;SDS011;62970;53.130;8.244;2022-11-20T10:03:48;9.70;;;8.70;;
10166;SDS011;62970;53.130;8.244;2022-11-20T10:06:27;10.63;;;8.57;;
10166;SDS011;62970;53.130;8.244;2022-11-20T10:09:13;9.70;;;8.70;;
10166;SDS011;62970;53.130;8.244;2022-11-20T10:11:56;9.87;;;8.87;;
10166;SDS011;62970;53.130;8.244;2022-11-20T10:14:40;9.90;;;8.90;;
10166;SDS011;62970;53.130;8.244;2022-11-20T10:17:33;10.30;;;9.20;;
10166;SDS011;62970;53.130;8.244;2022-11-20T10:20:37;9.27;;;8.27;;
10166;SDS011;62970;53.130;8.244;2022-11-20T10:23:29;9.17;;;8.10;;
10166;SDS011;62970;53.130;8.244;2022-11-20T10:26:21;9.73;;;8.80;;
10166;SDS011;62970;53.130;8.244;2022-11-20T10:29:09;9.57;;;8.57;;
10166;SDS011;62970;53.130;8.244;2022-11-20T10:31:41;11.63;;;10.43;;
10166;SDS011;62970;53.130;8.244;2022-11-20T10:34:17;10.87;;;9.57;;
10166;SDS011;62970;53.130;8.244;2022-11-20T10:36:52;11.33;;;9.67;;
10166;SDS011;62970;53.130;8.244;2022-11-20T10:39:31;10.60;;;9.50;;
10166;SDS011;62970;53.130;8.244;2022-11-20T10:42:08;10.07;;;9.07;;
10166;SDS011;62970;53.130;8.244;2022-11-20T10:44:49;9.67;;;8.67;;
10166;SDS011;62970;53.130;8.244;2022-11-20T10:47:30;9.80;;;8.80;;
10166;SDS011;62970;53.130;8.244;2022-11-20T10:50:01;9.30;;;8.40;;
10166;SDS011;62970;53.130;8.244;2022-11-20T10:52:36;9.83;;;8.83;;
10166;SDS011;62970;53.130;8.244;2022-11-20T10:55:22;8.83;;;7.93;;
10166;SDS011;62970;53.130;8.244;2022-11-20T10:58:01;10.47;;;9.27;;
10166;SDS011;62970;53.130;8.244;2022-11-20T11:00:41;8.90;;;8.00;;
10166;SDS011;62970;53.130;8.244;2022-11-20T11:03:14;9.60;;;8.60;;
10166;SDS011;62970;53.130;8.244;2022-11-20T11:05:54;10.33;;;8.30;;
10166;SDS011;62970;53.130;8.244;2022-11-20T11:08:37;9.37;;;7.97;;
10166;SDS011;62970;53.130;8.244;2022-11-20T11:11:13;8.53;;;7.63;;
10166;SDS011;62970;53.130;8.244;2022-11-20T11:13:51;8.77;;;7.50;;
10166;SDS011;62970;53.130;8.244;2022-11-20T11:16:23;7.80;;;7.00;;
10166;SDS011;62970;53.130;8.244;2022-11-20T11:19:03;8.63;;;7.83;;
10166;SDS011;62970;53.130;8.244;2022-11-20T11:21:33;8.13;;;7.37;;
10166;SDS011;62970;53.130;8.244;2022-11-20T11:24:14;8.33;;;7.47;;
10166;SDS011;62970;53.130;8.244;2022-11-20T11:26:52;8.47;;;7.67;;
10166;SDS011;62970;53.130;8.244;2022-11-20T11:29:29;7.50;;;6.80;;
10166;SDS011;62970;53.130;8.244;2022-11-20T11:32:06;7.80;;;7.00;;
10166;SDS011;62970;53.130;8.244;2022-11-20T11:34:39;7.00;;;6.40;;
10166;SDS011;62970;53.130;8.244;2022-11-20T11:37:11;7.37;;;6.67;;
10166;SDS011;62970;53.130;8.244;2022-11-20T11:39:46;7.83;;;7.03;;
10166;SDS011;62970;53.130;8.244;2022-11-20T11:42:17;7.30;;;6.60;;
10166;SDS011;62970;53.130;8.244;2022-11-20T11:44:48;7.00;;;6.30;;
10166;SDS011;62970;53.130;8.244;2022-11-20T11:47:35;7.27;;;6.57;;
10166;SDS011;62970;53.130;8.244;2022-11-20T11:50:16;7.37;;;6.63;;
10166;SDS011;62970;53.130;8.244;2022-11-20T11:55:19;7.03;;;6.33;;
10166;SDS011;62970;53.130;8.244;2022-11-20T11:58:02;7.03;;;6.33;;
10166;SDS011;62970;53.130;8.244;2022-11-20T12:00:47;7.03;;;6.37;;
10166;SDS011;62970;53.130;8.244;2022-11-20T12:03:32;8.10;;;6.07;;
10166;SDS011;62970;53.130;8.244;2022-11-20T12:06:09;7.60;;;6.40;;
10166;SDS011;62970;53.130;8.244;2022-11-20T12:08:43;7.20;;;6.50;;
10166;SDS011;62970;53.130;8.244;2022-11-20T12:11:19;7.23;;;6.50;;
10166;SDS011;62970;53.130;8.244;2022-11-20T12:14:00;6.87;;;6.27;;
10166;SDS011;62970;53.130;8.244;2022-11-20T12:16:44;6.83;;;6.23;;
10166;SDS011;62970;53.130;8.244;2022-11-20T12:19:17;7.00;;;6.30;;
10166;SDS011;62970;53.130;8.244;2022-11-20T12:21:53;6.87;;;6.27;;
10166;SDS011;62970;53.130;8.244;2022-11-20T12:24:40;7.37;;;6.67;;
10166;SDS011;62970;53.130;8.244;2022-11-20T12:27:53;7.43;;;6.50;;
10166;SDS011;62970;53.130;8.244;2022-11-20T12:31:14;7.03;;;6.00;;
10166;SDS011;62970;53.130;8.244;2022-11-20T12:34:07;6.97;;;6.37;;
10166;SDS011;62970;53.130;8.244;2022-11-20T12:37:08;7.47;;;6.77;;
10166;SDS011;62970;53.130;8.244;2022-11-20T12:40:07;6.87;;;6.20;;
10166;SDS011;62970;53.130;8.244;2022-11-20T12:42:59;6.57;;;5.97;;
10166;SDS011;62970;53.130;8.244;2022-11-20T12:45:59;8.00;;;6.80;;
10166;SDS011;62970;53.130;8.244;2022-11-20T12:48:59;7.30;;;6.50;;
10166;SDS011;62970;53.130;8.244;2022-11-20T12:55:04;7.13;;;6.43;;
10166;SDS011;62970;53.130;8.244;2022-11-20T12:57:58;7.23;;;6.53;;
10166;SDS011;62970;53.130;8.244;2022-11-20T13:00:41;7.00;;;6.30;;
10166;SDS011;62970;53.130;8.244;2022-11-20T13:03:28;7.13;;;6.43;;
10166;SDS011;62970;53.130;8.244;2022-11-20T13:06:12;7.10;;;6.30;;
10166;SDS011;62970;53.130;8.244;2022-11-20T13:08:52;7.00;;;6.30;;
10166;SDS011;62970;53.130;8.244;2022-11-20T13:11:25;7.17;;;6.47;;
10166;SDS011;62970;53.130;8.244;2022-11-20T13:14:12;7.03;;;6.33;;
10166;SDS011;62970;53.130;8.244;2022-11-20T13:17:04;6.93;;;6.23;;
10166;SDS011;62970;53.130;8.244;2022-11-20T13:19:48;7.03;;;6.20;;
10166;SDS011;62970;53.130;8.244;2022-11-20T13:22:24;7.00;;;6.27;;
10166;SDS011;62970;53.130;8.244;2022-11-20T13:25:00;7.73;;;6.50;;
10166;SDS011;62970;53.130;8.244;2022-11-20T13:27:32;6.60;;;5.67;;
10166;SDS011;62970;53.130;8.244;2022-11-20T13:30:12;6.70;;;6.00;;
10166;SDS011;62970;53.130;8.244;2022-11-20T13:32:47;7.50;;;6.33;;
10166;SDS011;62970;53.130;8.244;2022-11-20T13:35:29;7.63;;;6.90;;
10166;SDS011;62970;53.130;8.244;2022-11-20T13:38:05;8.17;;;6.90;;
10166;SDS011;62970;53.130;8.244;2022-11-20T13:40:50;8.53;;;7.23;;
10166;SDS011;62970;53.130;8.244;2022-11-20T13:43:44;8.20;;;6.73;;
10166;SDS011;62970;53.130;8.244;2022-11-20T13:46:16;7.37;;;6.67;;
10166;SDS011;62970;53.130;8.244;2022-11-20T13:48:49;7.60;;;6.90;;
10166;SDS011;62970;53.130;8.244;2022-11-20T13:51:27;7.63;;;6.93;;
10166;SDS011;62970;53.130;8.244;2022-11-20T13:54:22;7.00;;;6.20;;
10166;SDS011;62970;53.130;8.244;2022-11-20T14:00:46;7.17;;;6.30;;
10166;SDS011;62970;53.130;8.244;2022-11-20T14:03:25;8.37;;;6.67;;
10166;SDS011;62970;53.130;8.244;2022-11-20T14:06:02;10.13;;;7.90;;
10166;SDS011;62970;53.130;8.244;2022-11-20T14:08:54;8.43;;;7.20;;
10166;SDS011;62970;53.130;8.244;2022-11-20T14:11:27;9.80;;;7.83;;
10166;SDS011;62970;53.130;8.244;2022-11-20T14:14:04;7.73;;;6.83;;
10166;SDS011;62970;53.130;8.244;2022-11-20T14:16:43;7.60;;;6.50;;
10166;SDS011;62970;53.130;8.244;2022-11-20T14:19:24;7.20;;;6.50;;
10166;SDS011;62970;53.130;8.244;2022-11-20T14:22:16;6.57;;;5.97;;
10166;SDS011;62970;53.130;8.244;2022-11-20T14:24:59;7.07;;;6.37;;
10166;SDS011;62970;53.130;8.244;2022-11-20T14:27:33;7.00;;;6.20;;
10166;SDS011;62970;53.130;8.244;2022-11-20T14:30:11;8.40;;;7.50;;
10166;SDS011;62970;53.130;8.244;2022-11-20T14:32:44;8.17;;;6.97;;
10166;SDS011;62970;53.130;8.244;2022-11-20T14:35:19;7.73;;;6.93;;
10166;SDS011;62970;53.130;8.244;2022-11-20T14:37:54;8.90;;;7.60;;
10166;SDS011;62970;53.130;8.244;2022-11-20T14:40:26;8.40;;;7.53;;
10166;SDS011;62970;53.130;8.244;2022-11-20T14:43:00;7.63;;;6.93;;
10166;SDS011;62970;53.130;8.244;2022-11-20T14:45:45;8.23;;;6.53;;
10166;SDS011;62970;53.130;8.244;2022-11-20T14:48:24;8.30;;;7.53;;
10166;SDS011;62970;53.130;8.244;2022-11-20T14:51:01;8.13;;;7.27;;
10166;SDS011;62970;53.130;8.244;2022-11-20T14:53:31;8.50;;;6.77;;
10166;SDS011;62970;53.130;8.244;2022-11-20T14:56:01;7.57;;;6.87;;
10166;SDS011;62970;53.130;8.244;2022-11-20T14:58:32;7.70;;;6.90;;
10166;SDS011;62970;53.130;8.244;2022-11-20T15:01:05;8.03;;;7.23;;
10166;SDS011;62970;53.130;8.244;2022-11-20T15:03:37;8.33;;;7.47;;
10166;SDS011;62970;53.130;8.244;2022-11-20T15:06:10;7.97;;;7.17;;
10166;SDS011;62970;53.130;8.244;2022-11-20T15:08:50;8.23;;;7.40;;
10166;SDS011;62970;53.130;8.244;2022-11-20T15:11:20;9.93;;;8.90;;
10166;SDS011;62970;53.130;8.244;2022-11-20T15:13:57;9.83;;;8.20;;
10166;SDS011;62970;53.130;8.244;2022-11-20T15:16:35;8.07;;;7.33;;
10166;SDS011;62970;53.130;8.244;2022-11-20T15:19:04;10.17;;;7.90;;
10166;SDS011;62970;53.130;8.244;2022-11-20T15:21:47;8.37;;;7.57;;
10166;SDS011;62970;53.130;8.244;2022-11-20T15:24:16;9.70;;;8.73;;
10166;SDS011;62970;53.130;8.244;2022-11-20T15:26:48;9.40;;;8.40;;
10166;SDS011;62970;53.130;8.244;2022-11-20T15:29:19;9.37;;;8.37;;
10166;SDS011;62970;53.130;8.244;2022-11-20T15:31:53;9.43;;;8.43;;
10166;SDS011;62970;53.130;8.244;2022-11-20T15:34:23;9.23;;;8.23;;
10166;SDS011;62970;53.130;8.244;2022-11-20T15:36:55;9.07;;;8.13;;
10166;SDS011;62970;53.130;8.244;2022-11-20T15:39:24;8.37;;;7.57;;
10166;SDS011;62970;53.130;8.244;2022-11-20T15:41:56;8.13;;;7.33;;
10166;SDS011;62970;53.130;8.244;2022-11-20T15:44:25;10.40;;;7.70;;
10166;SDS011;62970;53.130;8.244;2022-11-20T15:46:57;9.03;;;8.10;;
10166;SDS011;62970;53.130;8.244;2022-11-20T15:49:27;11.57;;;9.67;;
10166;SDS011;62970;53.130;8.244;2022-11-20T15:51:56;13.47;;;11.10;;
10166;SDS011;62970;53.130;8.244;2022-11-20T15:54:26;12.43;;;10.60;;
10166;SDS011;62970;53.130;8.244;2022-11-20T15:56:55;11.17;;;10.00;;
10166;SDS011;62970;53.130;8.244;2022-11-20T15:59:25;11.27;;;10.13;;
10166;SDS011;62970;53.130;8.244;2022-11-20T16:01:58;11.07;;;9.87;;
10166;SDS011;62970;53.130;8.244;2022-11-20T16:04:27;11.33;;;10.17;;
10166;SDS011;62970;53.130;8.244;2022-11-20T16:06:57;14.43;;;10.83;;
10166;SDS011;62970;53.130;8.244;2022-11-20T16:09:26;17.27;;;12.93;;
10166;SDS011;62970;53.130;8.244;2022-11-20T16:11:55;18.97;;;14.07;;
10166;SDS011;62970;53.130;8.244;2022-11-20T16:14:25;18.77;;;13.10;;
10166;SDS011;62970;53.130;8.244;2022-11-20T16:17:10;21.17;;;15.37;;
10166;SDS011;62970;53.130;8.244;2022-11-20T16:20:01;21.43;;;15.13;;
10166;SDS011;62970;53.130;8.244;2022-11-20T16:22:30;21.70;;;15.87;;
10166;SDS011;62970;53.130;8.244;2022-11-20T16:24:59;21.57;;;15.77;;
10166;SDS011;62970;53.130;8.244;2022-11-20T16:27:29;18.27;;;14.23;;
10166;SDS011;62970;53.130;8.244;2022-11-20T16:29:58;16.87;;;12.87;;
10166;SDS011;62970;53.130;8.244;2022-11-20T16:32:32;14.90;;;11.77;;
10166;SDS011;62970;53.130;8.244;2022-11-20T16:35:01;17.20;;;12.97;;
10166;SDS011;62970;53.130;8.244;2022-11-20T16:37:32;14.63;;;11.93;;
10166;SDS011;62970;53.130;8.244;2022-11-20T16:40:03;15.43;;;12.03;;
10166;SDS011;62970;53.130;8.244;2022-11-20T16:42:35;13.73;;;11.97;;
10166;SDS011;62970;53.130;8.244;2022-11-20T16:45:05;18.00;;;14.50;;
10166;SDS011;62970;53.130;8.244;2022-11-20T16:47:39;16.20;;;13.47;;